Time;durP1;ratioP1;P1;durP2;ratioP2;P2;SDS_P1;SDS_P2;PMS_P1;PMS_P2;Temp;Humidity;BMP_temperature;BMP_pressure;BME280_temperature;BME280_humidity;BME280_pressure;Samples;Min_cycle;Max_cycle;Signal;HPM_P1;HPM_P2
2022/01/11 00:00:41;;;;;;;14.33;6.90;;;0.30;99.90;;;;;;5022994;28;21073;-69
2022/01/11 00:03:09;;;;;;;14.60;7.53;;;0.30;99.90;;;;;;5019352;28;20434;-70
2022/01/11 00:05:41;;;;;;;5.67;5.10;;;0.20;99.90;;;;;;5030151;28;20438;-70
2022/01/11 00:08:10;;;;;;;9.17;6.70;;;0.20;99.90;;;;;;5025928;28;20580;-70
2022/01/11 00:10:47;;;;;;;6.20;5.37;;;0.20;99.90;;;;;;5027600;28;20497;-70
2022/01/11 00:13:15;;;;;;;13.90;7.83;;;0.10;99.90;;;;;;5027123;28;20508;-69
2022/01/11 00:15:43;;;;;;;8.97;5.47;;;0.10;99.90;;;;;;5030686;28;20499;-71
2022/01/11 00:18:10;;;;;;;14.23;5.73;;;0.10;99.90;;;;;;5023010;28;21461;-69
2022/01/11 00:20:38;;;;;;;9.40;5.73;;;0.10;99.90;;;;;;5024977;28;20812;-70
2022/01/11 00:25:51;;;;;;;14.53;7.77;;;0.20;99.90;;;;;;5022296;28;20406;-71
2022/01/11 00:28:21;;;;;;;7.70;5.60;;;0.30;99.90;;;;;;5024682;28;20474;-70
2022/01/11 00:30:50;;;;;;;6.97;6.17;;;0.20;99.90;;;;;;5024339;28;20647;-69
2022/01/11 00:33:22;;;;;;;12.97;6.83;;;0.20;99.90;;;;;;5022029;28;20847;-70
2022/01/11 00:36:42;;;;;;;11.67;8.30;;;0.20;99.90;;;;;;5018450;28;20857;-70
2022/01/11 00:39:09;;;;;;;7.13;6.47;;;0.10;99.90;;;;;;5024281;28;20507;-70
2022/01/11 00:41:38;;;;;;;8.37;5.60;;;0.10;99.90;;;;;;5021108;28;20511;-71
2022/01/11 00:44:06;;;;;;;12.30;6.40;;;0.10;99.90;;;;;;5030468;28;20561;-71
2022/01/11 00:46:34;;;;;;;13.23;6.17;;;0.20;99.90;;;;;;5018872;28;20559;-70
2022/01/11 00:49:02;;;;;;;15.20;6.97;;;0.20;99.90;;;;;;5021236;28;20546;-70
2022/01/11 00:51:29;;;;;;;10.00;5.77;;;0.10;99.90;;;;;;5029504;28;20454;-70
2022/01/11 00:53:57;;;;;;;8.10;5.97;;;0.00;99.90;;;;;;5027004;28;20539;-71
2022/01/11 00:56:25;;;;;;;16.33;8.00;;;0.00;99.90;;;;;;5030947;28;20550;-69
2022/01/11 00:58:52;;;;;;;7.40;6.53;;;0.00;99.90;;;;;;5025383;28;20426;-70
2022/01/11 01:01:19;;;;;;;9.50;6.00;;;-0.10;99.90;;;;;;5026982;28;20986;-69
2022/01/11 01:03:47;;;;;;;14.00;6.53;;;-0.10;99.90;;;;;;5021760;28;20522;-70
2022/01/11 01:06:14;;;;;;;6.93;6.23;;;-0.10;99.90;;;;;;5033925;28;20496;-68
2022/01/11 01:08:41;;;;;;;16.43;9.33;;;-0.10;99.90;;;;;;5024638;28;21008;-70
2022/01/11 01:11:08;;;;;;;17.07;7.50;;;0.00;99.90;;;;;;5024330;28;20924;-70
2022/01/11 01:13:36;;;;;;;10.97;6.27;;;0.00;99.90;;;;;;5023646;28;20444;-71
2022/01/11 01:16:03;;;;;;;8.60;7.60;;;0.00;99.90;;;;;;5028451;28;21048;-70
2022/01/11 01:18:33;;;;;;;8.73;5.53;;;0.00;99.90;;;;;;5024407;28;20575;-70
2022/01/11 01:21:02;;;;;;;9.87;5.27;;;0.00;99.90;;;;;;5034463;28;20554;-71
2022/01/11 01:23:29;;;;;;;7.57;5.50;;;-0.10;99.90;;;;;;5028459;28;20437;-70
2022/01/11 01:25:57;;;;;;;12.50;7.20;;;0.00;99.90;;;;;;5033558;28;20545;-72
2022/01/11 01:28:25;;;;;;;6.90;5.40;;;-0.20;99.90;;;;;;5026848;28;20565;-70
2022/01/11 01:30:54;;;;;;;9.57;5.33;;;-0.30;99.90;;;;;;5028799;28;20498;-70
2022/01/11 01:33:21;;;;;;;10.30;5.20;;;-0.30;99.90;;;;;;5018487;28;21285;-73
2022/01/11 01:35:53;;;;;;;15.77;7.53;;;-0.20;99.90;;;;;;5034945;28;20497;-71
2022/01/11 01:38:24;;;;;;;9.03;5.10;;;-0.10;99.90;;;;;;5017528;28;20476;-72
2022/01/11 01:40:53;;;;;;;11.83;6.10;;;-0.20;99.90;;;;;;5022187;28;20566;-70
2022/01/11 01:43:20;;;;;;;9.43;5.30;;;-0.20;99.90;;;;;;5024630;28;20463;-70
2022/01/11 01:45:49;;;;;;;6.80;5.80;;;-0.30;99.90;;;;;;5021438;28;20773;-70
2022/01/11 01:48:17;;;;;;;8.90;5.50;;;-0.30;99.90;;;;;;5025370;28;20452;-71
2022/01/11 01:50:44;;;;;;;7.83;4.70;;;-0.30;99.90;;;;;;5020637;28;20486;-69
2022/01/11 01:53:14;;;;;;;16.23;7.43;;;-0.20;99.90;;;;;;5026846;28;20460;-70
2022/01/11 01:55:43;;;;;;;8.30;5.03;;;-0.20;99.90;;;;;;5027474;28;20456;-70
2022/01/11 01:58:12;;;;;;;13.40;9.23;;;-0.30;99.90;;;;;;5025026;28;20940;-71
2022/01/11 02:00:42;;;;;;;14.40;6.90;;;-0.50;99.90;;;;;;5021469;28;20498;-70
2022/01/11 02:03:12;;;;;;;14.33;6.93;;;-0.40;99.90;;;;;;5031302;28;20818;-69
2022/01/11 02:05:39;;;;;;;18.87;8.67;;;-0.40;99.90;;;;;;5034603;28;20430;-70
2022/01/11 02:08:07;;;;;;;16.30;5.93;;;-0.40;99.90;;;;;;5035750;28;20472;-72
2022/01/11 02:10:36;;;;;;;8.93;4.73;;;-0.30;99.90;;;;;;5023181;28;20479;-70
2022/01/11 02:13:05;;;;;;;9.93;4.90;;;-0.30;99.90;;;;;;5034036;28;24566;-71
2022/01/11 02:15:33;;;;;;;7.80;6.60;;;-0.30;99.90;;;;;;5027470;28;20924;-71
2022/01/11 02:18:08;;;;;;;13.23;5.90;;;-0.40;99.90;;;;;;5033574;28;20708;-68
2022/01/11 02:20:37;;;;;;;7.03;6.23;;;-0.50;99.90;;;;;;5032549;28;20517;-70
2022/01/11 02:23:05;;;;;;;36.23;7.33;;;-0.60;99.90;;;;;;5015820;28;20430;-70
2022/01/11 02:25:31;;;;;;;9.87;7.30;;;-0.60;99.90;;;;;;5026630;28;20430;-70
2022/01/11 02:27:58;;;;;;;6.40;5.13;;;-0.50;99.90;;;;;;5025708;28;21003;-72
2022/01/11 02:30:31;;;;;;;6.43;5.70;;;-0.50;99.90;;;;;;5029151;28;20532;-71
2022/01/11 02:32:58;;;;;;;12.63;6.80;;;-0.60;99.90;;;;;;5024024;28;20460;-70
2022/01/11 02:35:25;;;;;;;7.30;5.03;;;-0.70;99.90;;;;;;5023375;28;21265;-72
2022/01/11 02:37:54;;;;;;;6.57;4.60;;;-0.70;99.90;;;;;;5025154;28;21155;-70
2022/01/11 02:40:21;;;;;;;7.53;6.80;;;-0.70;99.90;;;;;;5025707;28;20872;-69
2022/01/11 02:42:48;;;;;;;7.70;5.63;;;-0.60;99.90;;;;;;5025240;28;27391;-70
2022/01/11 02:45:16;;;;;;;20.60;9.60;;;-0.50;99.90;;;;;;5029141;28;20446;-69
2022/01/11 02:47:45;;;;;;;12.77;6.27;;;-0.60;99.90;;;;;;5032063;28;20472;-71
2022/01/11 02:50:13;;;;;;;9.63;4.60;;;-0.60;99.90;;;;;;5028005;28;20463;-70
2022/01/11 02:52:40;;;;;;;8.37;5.90;;;-0.70;99.90;;;;;;5025377;28;20473;-69
2022/01/11 02:55:12;;;;;;;28.57;8.27;;;-0.70;99.90;;;;;;5028776;28;20480;-70
2022/01/11 02:57:39;;;;;;;9.20;6.63;;;-0.70;99.90;;;;;;5019459;28;20515;-69
2022/01/11 03:00:08;;;;;;;6.17;5.07;;;-0.60;99.90;;;;;;5024752;28;20454;-69
2022/01/11 03:02:35;;;;;;;8.13;7.00;;;-0.70;99.90;;;;;;5023133;28;20994;-69
2022/01/11 03:05:06;;;;;;;10.60;5.50;;;-0.60;99.90;;;;;;5026526;28;20479;-71
2022/01/11 03:07:33;;;;;;;12.87;6.50;;;-0.60;99.90;;;;;;5030088;28;20475;-69
2022/01/11 03:10:02;;;;;;;6.70;4.77;;;-0.70;99.90;;;;;;5025642;28;22053;-70
2022/01/11 03:12:31;;;;;;;10.07;5.40;;;-0.70;99.90;;;;;;5019813;28;20892;-71
2022/01/11 03:14:58;;;;;;;8.07;5.37;;;-0.70;99.90;;;;;;5027138;28;20496;-70
2022/01/11 03:17:26;;;;;;;8.60;4.47;;;-0.70;99.90;;;;;;5033039;28;20519;-69
2022/01/11 03:19:54;;;;;;;8.83;6.33;;;-0.70;99.90;;;;;;5021325;28;20481;-70
2022/01/11 03:22:21;;;;;;;7.80;5.47;;;-0.70;99.90;;;;;;5019028;28;20452;-70
2022/01/11 03:24:48;;;;;;;5.00;4.23;;;-0.90;99.90;;;;;;5021936;28;20627;-69
2022/01/11 03:27:15;;;;;;;6.03;5.43;;;-1.10;99.90;;;;;;5024720;28;20419;-70
2022/01/11 03:29:44;;;;;;;8.10;5.73;;;-1.20;99.90;;;;;;5027110;28;20422;-71
2022/01/11 03:32:15;;;;;;;6.00;4.67;;;-1.20;99.90;;;;;;5021435;28;20801;-69
2022/01/11 03:34:45;;;;;;;9.57;4.43;;;-1.00;99.90;;;;;;5020879;28;20461;-69
2022/01/11 03:37:14;;;;;;;23.30;5.10;;;-0.90;99.90;;;;;;5032227;28;20513;-69
2022/01/11 03:39:41;;;;;;;6.07;3.40;;;-0.80;99.90;;;;;;5030987;28;20414;-70
2022/01/11 03:42:08;;;;;;;6.30;5.30;;;-0.80;99.90;;;;;;5018727;28;20955;-70
2022/01/11 03:44:35;;;;;;;10.70;5.87;;;-0.80;99.90;;;;;;5024415;28;20462;-71
2022/01/11 03:47:04;;;;;;;11.70;5.77;;;-0.80;99.90;;;;;;5030051;28;20511;-72
2022/01/11 03:49:31;;;;;;;8.17;5.40;;;-0.80;99.90;;;;;;5031274;28;20440;-71
2022/01/11 03:51:58;;;;;;;7.73;6.60;;;-0.70;99.90;;;;;;5021953;28;21020;-70
2022/01/11 03:54:28;;;;;;;20.23;5.93;;;-0.70;99.90;;;;;;5025271;28;20468;-71
2022/01/11 03:56:56;;;;;;;10.00;6.30;;;-0.70;99.90;;;;;;5016041;28;20987;-71
2022/01/11 03:59:23;;;;;;;9.90;8.23;;;-0.70;99.90;;;;;;5024790;28;20541;-71
2022/01/11 04:01:51;;;;;;;11.90;7.13;;;-0.80;99.90;;;;;;5006395;28;21121;-70
2022/01/11 04:04:20;;;;;;;16.10;4.50;;;-0.80;99.90;;;;;;5007296;28;20558;-74
2022/01/11 04:06:47;;;;;;;14.00;6.30;;;-0.90;99.90;;;;;;4953859;28;20633;-73
2022/01/11 04:09:15;;;;;;;7.13;3.67;;;-0.90;99.90;;;;;;5005779;28;20468;-71
2022/01/11 04:11:42;;;;;;;12.27;5.13;;;-0.90;99.90;;;;;;5017872;28;20447;-71
2022/01/11 04:14:09;;;;;;;10.40;6.07;;;-1.00;99.90;;;;;;5014633;28;20430;-71
2022/01/11 04:16:36;;;;;;;4.87;3.60;;;-1.00;99.90;;;;;;5016023;28;21336;-71
2022/01/11 04:19:04;;;;;;;20.37;5.87;;;-1.00;99.90;;;;;;5023629;28;21768;-70
2022/01/11 04:21:32;;;;;;;5.70;4.13;;;-1.00;99.90;;;;;;5027266;28;20455;-70
2022/01/11 04:23:59;;;;;;;11.47;6.47;;;-1.00;99.90;;;;;;5028550;28;20962;-72
2022/01/11 04:26:26;;;;;;;12.93;3.80;;;-1.10;99.90;;;;;;5016322;28;20464;-69
2022/01/11 04:28:53;;;;;;;11.07;7.53;;;-0.90;99.90;;;;;;5017533;28;20503;-70
2022/01/11 04:31:21;;;;;;;13.27;5.67;;;-1.10;99.90;;;;;;5023627;28;26475;-70
2022/01/11 04:33:48;;;;;;;5.67;5.10;;;-1.00;99.90;;;;;;5015084;28;20462;-70
2022/01/11 04:36:15;;;;;;;15.37;6.20;;;-1.00;99.90;;;;;;5017686;28;20459;-69
2022/01/11 04:38:44;;;;;;;8.47;4.03;;;-1.00;99.90;;;;;;5020569;28;20458;-70
2022/01/11 04:41:11;;;;;;;7.30;5.07;;;-1.10;99.90;;;;;;5013415;28;20453;-68
2022/01/11 04:43:38;;;;;;;13.73;4.87;;;-1.10;99.90;;;;;;5022120;28;20809;-70
2022/01/11 04:46:05;;;;;;;6.40;4.30;;;-1.30;99.90;;;;;;5023940;28;20464;-72
2022/01/11 04:48:32;;;;;;;3.77;3.23;;;-1.30;99.90;;;;;;5018578;28;20814;-69
2022/01/11 04:51:00;;;;;;;7.23;4.07;;;-1.30;99.90;;;;;;5018194;28;20534;-69
2022/01/11 04:53:27;;;;;;;10.60;6.40;;;-1.10;99.90;;;;;;5022327;28;20565;-69
2022/01/11 04:55:57;;;;;;;17.90;5.10;;;-1.20;99.90;;;;;;5030185;28;20500;-71
2022/01/11 04:58:24;;;;;;;12.40;4.53;;;-1.30;99.90;;;;;;5025339;28;20931;-70
2022/01/11 05:00:51;;;;;;;11.97;6.03;;;-1.40;99.90;;;;;;5021725;28;21366;-70
2022/01/11 05:03:19;;;;;;;7.13;3.53;;;-1.40;99.90;;;;;;5017204;28;20576;-69
2022/01/11 05:05:48;;;;;;;5.70;5.17;;;-1.40;99.90;;;;;;5033563;28;20455;-72
2022/01/11 05:08:15;;;;;;;13.70;6.73;;;-1.30;99.90;;;;;;5025825;28;20464;-68
2022/01/11 05:10:43;;;;;;;7.20;6.47;;;-1.30;99.90;;;;;;5011452;28;20495;-70
2022/01/11 05:13:12;;;;;;;8.83;3.70;;;-1.30;99.90;;;;;;5022518;28;20459;-68
2022/01/11 05:15:40;;;;;;;6.33;4.23;;;-1.20;99.90;;;;;;5020815;28;20884;-70
2022/01/11 05:18:08;;;;;;;7.57;6.33;;;-1.30;99.90;;;;;;5018655;28;21074;-70
2022/01/11 05:20:35;;;;;;;7.00;3.63;;;-1.20;99.90;;;;;;5028099;28;20475;-71
2022/01/11 05:23:02;;;;;;;9.27;4.63;;;-1.10;99.90;;;;;;5024587;28;20793;-69
2022/01/11 05:25:29;;;;;;;6.40;4.73;;;-1.10;99.90;;;;;;5027755;28;20971;-70
2022/01/11 05:27:56;;;;;;;13.17;5.70;;;-1.30;99.90;;;;;;5013438;28;20881;-71
2022/01/11 05:30:25;;;;;;;6.27;4.27;;;-1.30;99.90;;;;;;5023839;28;20945;-71
2022/01/11 05:32:53;;;;;;;12.33;4.87;;;-1.30;99.90;;;;;;5017707;28;20759;-71
2022/01/11 05:35:22;;;;;;;7.80;4.07;;;-1.50;99.90;;;;;;5030734;28;20608;-70
2022/01/11 05:37:50;;;;;;;7.53;3.87;;;-1.60;99.90;;;;;;5022505;28;20899;-68
2022/01/11 05:40:18;;;;;;;8.00;5.00;;;-1.60;99.90;;;;;;5033508;28;21060;-69
2022/01/11 05:42:48;;;;;;;7.00;4.77;;;-1.60;99.90;;;;;;5027404;28;21023;-70
2022/01/11 05:45:15;;;;;;;8.63;4.23;;;-1.80;99.90;;;;;;5021626;28;20891;-72
2022/01/11 05:47:47;;;;;;;6.20;3.83;;;-1.80;99.90;;;;;;5026638;28;20544;-69
2022/01/11 05:50:15;;;;;;;12.83;5.70;;;-1.70;99.90;;;;;;5009654;28;20456;-72
2022/01/11 05:52:43;;;;;;;6.20;3.43;;;-1.60;99.90;;;;;;5003762;28;20900;-70
2022/01/11 05:55:12;;;;;;;11.37;3.93;;;-1.60;99.90;;;;;;5021712;28;20456;-70
2022/01/11 05:57:41;;;;;;;9.47;3.60;;;-1.60;99.90;;;;;;5029939;28;20605;-68
2022/01/11 06:00:11;;;;;;;8.33;6.27;;;-1.50;99.90;;;;;;5029285;28;20475;-73
2022/01/11 06:02:41;;;;;;;13.20;5.83;;;-1.60;99.90;;;;;;5031888;28;20467;-69
2022/01/11 06:05:10;;;;;;;5.37;4.80;;;-1.50;99.90;;;;;;5031435;28;20447;-69
2022/01/11 06:07:39;;;;;;;7.83;3.50;;;-1.50;99.90;;;;;;5027458;28;20470;-72
2022/01/11 06:10:07;;;;;;;8.40;4.57;;;-1.50;99.90;;;;;;5025279;28;20484;-69
2022/01/11 06:12:34;;;;;;;7.23;4.63;;;-1.60;99.90;;;;;;5012709;28;20458;-71
2022/01/11 06:15:01;;;;;;;13.53;4.07;;;-1.70;99.90;;;;;;5033600;28;20483;-71
2022/01/11 06:17:28;;;;;;;11.33;5.60;;;-1.70;99.90;;;;;;5031803;28;20441;-71
2022/01/11 06:19:55;;;;;;;6.87;3.77;;;-1.80;99.90;;;;;;5025777;28;20560;-69
2022/01/11 06:22:24;;;;;;;10.50;6.10;;;-1.70;99.90;;;;;;5027186;28;20487;-69
2022/01/11 06:24:52;;;;;;;8.13;3.90;;;-1.70;99.90;;;;;;5031891;28;20488;-71
2022/01/11 06:27:19;;;;;;;8.50;5.33;;;-1.70;99.90;;;;;;5024988;28;20460;-70
2022/01/11 06:29:46;;;;;;;6.50;4.47;;;-1.70;99.90;;;;;;5031501;28;20948;-71
2022/01/11 06:32:13;;;;;;;4.10;3.80;;;-1.60;99.90;;;;;;5028726;28;20549;-69
2022/01/11 06:34:40;;;;;;;12.27;5.17;;;-1.60;99.90;;;;;;5025721;28;20529;-71
2022/01/11 06:37:07;;;;;;;11.17;6.07;;;-1.70;99.90;;;;;;5029189;28;20430;-71
2022/01/11 06:39:36;;;;;;;9.67;6.97;;;-1.70;99.90;;;;;;5037927;28;20904;-71
2022/01/11 06:42:04;;;;;;;12.20;4.70;;;-1.80;99.90;;;;;;5029292;28;20482;-73
2022/01/11 06:44:31;;;;;;;4.10;3.00;;;-1.60;99.90;;;;;;5029766;28;21042;-71
2022/01/11 06:46:58;;;;;;;10.43;6.10;;;-1.60;99.90;;;;;;5032168;28;20556;-71
2022/01/11 06:49:25;;;;;;;9.37;3.93;;;-1.60;99.90;;;;;;5027954;28;20490;-71
2022/01/11 06:51:52;;;;;;;7.90;4.27;;;-1.60;99.90;;;;;;5029240;28;20529;-71
2022/01/11 06:54:19;;;;;;;13.57;5.60;;;-1.70;99.90;;;;;;5026666;28;20468;-72
2022/01/11 06:56:47;;;;;;;12.50;5.03;;;-1.70;99.90;;;;;;5032773;28;20451;-70
2022/01/11 06:59:14;;;;;;;32.87;6.07;;;-1.70;99.90;;;;;;5034015;28;20486;-71
2022/01/11 07:01:41;;;;;;;4.23;3.87;;;-1.90;99.90;;;;;;5023882;28;20668;-71
2022/01/11 07:04:08;;;;;;;7.30;4.00;;;-1.90;99.90;;;;;;5020257;28;20558;-72
2022/01/11 07:06:35;;;;;;;5.33;3.90;;;-1.90;99.90;;;;;;5033471;28;21000;-69
2022/01/11 07:09:03;;;;;;;6.13;3.53;;;-1.80;99.90;;;;;;5030739;28;20439;-70
2022/01/11 07:11:30;;;;;;;21.80;5.40;;;-1.80;99.90;;;;;;5028869;28;20479;-70
2022/01/11 07:14:01;;;;;;;12.73;4.10;;;-1.90;99.90;;;;;;5020299;28;21001;-71
2022/01/11 07:16:28;;;;;;;8.97;6.90;;;-1.90;99.90;;;;;;5026494;28;20528;-71
2022/01/11 07:18:55;;;;;;;27.10;5.07;;;-1.90;99.90;;;;;;5029779;28;20490;-70
2022/01/11 07:21:22;;;;;;;18.50;5.40;;;-1.90;99.90;;;;;;5024645;28;20553;-71
2022/01/11 07:23:51;;;;;;;4.87;3.20;;;-1.80;99.90;;;;;;5025120;28;20445;-73
2022/01/11 07:26:18;;;;;;;17.43;6.10;;;-1.80;99.90;;;;;;5026402;28;20542;-70
2022/01/11 07:28:46;;;;;;;6.03;5.53;;;-1.70;99.90;;;;;;5011643;28;20811;-70
2022/01/11 07:31:15;;;;;;;12.33;4.47;;;-1.70;99.90;;;;;;5029881;28;21007;-69
2022/01/11 07:33:42;;;;;;;10.70;3.80;;;-1.80;99.90;;;;;;5024497;28;20552;-70
2022/01/11 07:36:09;;;;;;;8.37;5.03;;;-1.70;99.90;;;;;;5031442;28;20545;-71
2022/01/11 07:38:36;;;;;;;9.70;7.83;;;-1.80;99.90;;;;;;5032057;28;20559;-71
2022/01/11 07:41:05;;;;;;;7.53;4.30;;;-1.70;99.90;;;;;;5026974;28;21000;-72
2022/01/11 07:43:32;;;;;;;4.80;4.10;;;-1.80;99.90;;;;;;5031882;28;21334;-70
2022/01/11 07:45:59;;;;;;;11.50;5.33;;;-1.70;99.90;;;;;;5025731;28;21019;-69
2022/01/11 07:48:27;;;;;;;10.50;5.10;;;-1.70;99.90;;;;;;5027048;28;20516;-71
2022/01/11 07:50:54;;;;;;;19.67;5.37;;;-1.70;99.90;;;;;;5029267;28;21118;-69
2022/01/11 07:53:21;;;;;;;7.17;6.43;;;-1.70;99.90;;;;;;5022541;28;20956;-71
2022/01/11 07:55:48;;;;;;;6.40;5.80;;;-1.60;99.90;;;;;;5010988;28;20526;-68
2022/01/11 07:58:15;;;;;;;12.97;5.83;;;-1.50;99.90;;;;;;5021635;28;20549;-70
2022/01/11 08:00:42;;;;;;;9.77;4.27;;;-1.40;99.90;;;;;;5024794;28;20666;-71
2022/01/11 08:03:09;;;;;;;17.80;6.20;;;-1.30;99.90;;;;;;5009109;28;20455;-70
2022/01/11 08:05:38;;;;;;;11.80;6.60;;;-1.10;99.90;;;;;;5025109;28;21061;-69
2022/01/11 08:08:07;;;;;;;8.70;4.77;;;-0.90;99.90;;;;;;5019108;28;20797;-70
2022/01/11 08:10:34;;;;;;;7.90;5.67;;;-0.80;99.90;;;;;;5019592;28;20430;-70
2022/01/11 08:13:05;;;;;;;12.93;8.07;;;-0.80;99.90;;;;;;5015795;28;20435;-69
2022/01/11 08:15:33;;;;;;;10.50;6.67;;;-0.70;99.90;;;;;;5014756;28;20813;-70
2022/01/11 08:18:00;;;;;;;10.47;5.33;;;-0.60;99.90;;;;;;5008325;28;20800;-71
2022/01/11 08:20:27;;;;;;;11.93;7.07;;;-0.60;99.90;;;;;;5014056;28;20589;-70
2022/01/11 08:22:56;;;;;;;8.57;6.23;;;-0.60;99.90;;;;;;5013878;28;20514;-70
2022/01/11 08:25:24;;;;;;;7.70;4.73;;;-0.50;99.90;;;;;;5012003;28;20529;-70
2022/01/11 08:27:51;;;;;;;5.90;5.13;;;-0.40;99.90;;;;;;5029846;28;20583;-72
2022/01/11 08:30:19;;;;;;;5.33;4.43;;;-0.40;99.90;;;;;;5028679;28;20468;-70
2022/01/11 08:32:46;;;;;;;6.90;6.23;;;-0.60;99.90;;;;;;5030396;28;20675;-72
2022/01/11 08:35:14;;;;;;;19.53;8.00;;;-0.70;99.90;;;;;;5033769;28;20438;-71
2022/01/11 08:37:41;;;;;;;6.53;5.77;;;-0.90;99.90;;;;;;5030261;28;20455;-73
2022/01/11 08:40:12;;;;;;;11.80;4.97;;;-0.80;99.90;;;;;;5034592;28;20533;-72
2022/01/11 08:42:39;;;;;;;9.10;6.60;;;-0.80;99.90;;;;;;5034112;28;20466;-72
2022/01/11 08:45:08;;;;;;;10.23;7.10;;;-0.70;99.90;;;;;;5032777;28;20526;-72
2022/01/11 08:47:35;;;;;;;7.53;6.53;;;-0.60;99.90;;;;;;5036018;28;20857;-72
2022/01/11 08:50:04;;;;;;;14.40;8.67;;;-0.30;99.90;;;;;;5034382;28;20478;-72
2022/01/11 08:52:31;;;;;;;9.70;5.83;;;0.00;99.90;;;;;;5034144;28;20568;-72
2022/01/11 08:54:58;;;;;;;22.20;10.30;;;0.80;99.90;;;;;;5035281;28;20561;-73
2022/01/11 08:57:26;;;;;;;14.17;7.83;;;1.60;99.90;;;;;;5022083;28;20520;-71
2022/01/11 08:59:53;;;;;;;16.53;11.03;;;2.20;99.90;;;;;;5030894;28;20574;-72
2022/01/11 09:02:21;;;;;;;20.17;9.13;;;3.00;99.90;;;;;;5027603;28;20566;-70
2022/01/11 09:04:50;;;;;;;13.10;9.60;;;3.60;99.90;;;;;;5028846;28;20438;-73
2022/01/11 09:07:17;;;;;;;13.07;6.37;;;3.90;99.90;;;;;;5025406;28;20486;-72
2022/01/11 09:09:44;;;;;;;14.03;9.47;;;3.80;99.90;;;;;;5029851;28;20474;-71
2022/01/11 09:12:13;;;;;;;18.47;11.20;;;3.60;99.90;;;;;;5023598;28;20478;-74
2022/01/11 09:14:42;;;;;;;22.97;9.50;;;3.40;99.90;;;;;;5032006;28;20541;-73
2022/01/11 09:17:09;;;;;;;24.27;12.03;;;3.00;99.90;;;;;;5027834;28;20481;-71
2022/01/11 09:19:37;;;;;;;22.00;9.67;;;2.90;99.90;;;;;;5031067;28;21048;-72
2022/01/11 09:22:05;;;;;;;20.27;11.60;;;3.10;99.90;;;;;;5028586;28;20690;-71
2022/01/11 09:24:33;;;;;;;17.83;9.80;;;3.90;99.90;;;;;;5032798;28;20467;-73
2022/01/11 09:27:02;;;;;;;15.00;9.60;;;4.70;99.90;;;;;;5032849;28;20435;-71
2022/01/11 09:29:31;;;;;;;23.83;12.33;;;5.80;99.90;;;;;;5029591;28;20493;-73
2022/01/11 09:32:01;;;;;;;23.00;11.17;;;6.60;99.90;;;;;;5034208;28;20565;-69
2022/01/11 09:34:28;;;;;;;22.63;10.00;;;6.80;99.90;;;;;;5030043;28;20563;-70
2022/01/11 09:36:55;;;;;;;18.10;10.73;;;5.80;99.90;;;;;;5031885;28;20871;-71
2022/01/11 09:39:23;;;;;;;18.90;10.50;;;5.10;99.90;;;;;;5029248;28;21131;-71
2022/01/11 09:41:51;;;;;;;19.13;12.70;;;4.40;99.90;;;;;;5029951;28;20533;-72
2022/01/11 09:44:18;;;;;;;15.83;11.27;;;4.00;99.90;;;;;;5036249;28;20526;-71
2022/01/11 09:46:45;;;;;;;17.80;11.83;;;3.80;99.90;;;;;;5031082;28;20950;-68
2022/01/11 09:49:14;;;;;;;22.23;11.00;;;3.40;99.90;;;;;;5028989;28;20531;-71
2022/01/11 09:51:43;;;;;;;19.10;10.20;;;3.40;99.90;;;;;;5035371;28;21019;-69
2022/01/11 09:54:13;;;;;;;17.20;9.43;;;3.40;99.90;;;;;;5034938;28;20467;-71
2022/01/11 09:56:40;;;;;;;19.23;9.10;;;3.30;99.90;;;;;;5034492;28;20554;-70
2022/01/11 09:59:08;;;;;;;17.30;8.50;;;3.70;99.90;;;;;;5029819;28;20565;-72
2022/01/11 10:01:36;;;;;;;13.70;10.63;;;4.50;99.90;;;;;;5034481;28;21246;-70
2022/01/11 10:04:06;;;;;;;36.13;12.63;;;5.70;99.90;;;;;;5028417;28;20434;-67
2022/01/11 10:06:37;;;;;;;20.30;9.60;;;7.30;99.90;;;;;;5034719;28;20534;-71
2022/01/11 10:09:16;;;;;;;16.10;10.07;;;7.10;99.90;;;;;;5029648;28;20930;-72
2022/01/11 10:11:45;;;;;;;17.73;11.03;;;6.60;99.90;;;;;;5029222;28;20724;-70
2022/01/11 10:14:21;;;;;;;18.83;10.53;;;6.00;99.90;;;;;;5019139;28;20472;-71
2022/01/11 10:16:49;;;;;;;14.90;9.43;;;5.60;99.90;;;;;;5027590;28;20939;-70
2022/01/11 10:19:27;;;;;;;14.37;8.47;;;6.00;99.90;;;;;;5031020;28;20856;-70
2022/01/11 10:21:55;;;;;;;20.73;10.57;;;7.50;99.90;;;;;;5033233;28;20524;-71
2022/01/11 10:24:32;;;;;;;20.00;10.43;;;8.60;99.90;;;;;;5035506;28;21243;-71
2022/01/11 10:27:01;;;;;;;23.20;10.83;;;8.50;99.90;;;;;;5029839;28;20423;-68
2022/01/11 10:29:32;;;;;;;23.03;11.00;;;8.00;99.90;;;;;;5024692;28;20466;-69
2022/01/11 10:32:01;;;;;;;17.10;11.43;;;7.30;99.90;;;;;;5032087;28;20973;-68
2022/01/11 10:34:32;;;;;;;17.67;10.50;;;6.50;99.90;;;;;;5022809;28;20474;-72
2022/01/11 10:37:03;;;;;;;19.30;10.47;;;6.10;99.90;;;;;;5035425;28;20517;-69
2022/01/11 10:39:33;;;;;;;22.50;10.50;;;5.70;99.90;;;;;;5032131;28;20540;-71
2022/01/11 10:42:02;;;;;;;17.20;12.70;;;5.30;99.90;;;;;;5028038;28;20515;-70
2022/01/11 10:44:52;;;;;;;24.73;10.83;;;5.00;99.90;;;;;;5020902;28;20481;-69
2022/01/11 10:47:23;;;;;;;19.80;10.87;;;4.90;99.90;;;;;;5029760;28;20757;-71
2022/01/11 10:49:55;;;;;;;20.53;9.80;;;4.80;99.90;;;;;;5036198;28;20801;-70
2022/01/11 10:52:25;;;;;;;16.97;8.00;;;4.70;99.90;;;;;;5033345;28;20579;-73
2022/01/11 10:54:52;;;;;;;19.83;7.80;;;4.70;99.90;;;;;;5031314;28;21269;-71
2022/01/11 10:57:26;;;;;;;10.97;7.40;;;4.70;99.90;;;;;;5027564;28;20467;-72
2022/01/11 11:00:22;;;;;;;21.40;8.87;;;4.70;99.90;;;;;;5035520;28;20544;-71
2022/01/11 11:02:55;;;;;;;14.93;9.20;;;4.70;99.90;;;;;;5015043;28;20444;-70
2022/01/11 11:05:30;;;;;;;14.53;6.90;;;4.60;99.90;;;;;;5026093;28;20463;-71
2022/01/11 11:08:08;;;;;;;13.97;8.37;;;4.60;99.90;;;;;;5024154;28;20608;-70
2022/01/11 11:10:39;;;;;;;12.10;8.27;;;4.50;99.90;;;;;;5023683;28;20845;-71
2022/01/11 11:13:07;;;;;;;15.70;8.83;;;4.50;99.90;;;;;;5018306;28;20543;-71
2022/01/11 11:15:37;;;;;;;11.17;7.60;;;4.40;99.90;;;;;;5015028;28;20434;-71
2022/01/11 11:18:06;;;;;;;24.33;8.83;;;4.40;99.90;;;;;;5021992;28;20613;-71
2022/01/11 11:20:34;;;;;;;11.00;7.40;;;4.40;99.90;;;;;;5022268;28;20519;-72
2022/01/11 11:23:04;;;;;;;12.83;7.97;;;4.50;99.90;;;;;;5011731;28;20490;-74
2022/01/11 11:25:31;;;;;;;11.67;7.70;;;4.60;99.90;;;;;;5022704;28;20473;-72
2022/01/11 11:27:58;;;;;;;12.40;7.77;;;4.70;99.90;;;;;;5012627;28;20488;-72
2022/01/11 11:30:25;;;;;;;13.53;6.00;;;4.70;99.90;;;;;;5025445;28;20962;-72
2022/01/11 11:32:54;;;;;;;14.80;7.40;;;4.80;99.90;;;;;;5019989;28;20442;-70
2022/01/11 11:35:22;;;;;;;18.23;8.00;;;5.10;99.90;;;;;;5026136;28;20434;-69
2022/01/11 11:37:53;;;;;;;19.90;9.70;;;5.10;99.90;;;;;;5022928;28;20538;-72
2022/01/11 11:40:25;;;;;;;13.23;8.37;;;5.10;99.90;;;;;;5021991;28;20466;-71
2022/01/11 11:42:54;;;;;;;14.00;9.07;;;5.20;99.90;;;;;;5017213;28;20541;-72
2022/01/11 11:45:23;;;;;;;14.20;9.07;;;5.60;99.90;;;;;;5031022;28;20464;-71
2022/01/11 11:47:50;;;;;;;15.87;6.57;;;7.20;99.90;;;;;;5036471;28;20459;-70
2022/01/11 11:50:19;;;;;;;15.40;7.80;;;9.40;99.90;;;;;;5041559;28;20479;-74
2022/01/11 11:52:48;;;;;;;10.60;5.80;;;11.40;99.90;;;;;;5027962;28;20587;-70
2022/01/11 11:55:20;;;;;;;12.93;6.20;;;12.90;99.90;;;;;;5029636;28;20494;-70
2022/01/11 11:57:50;;;;;;;11.03;6.13;;;14.00;99.90;;;;;;5017135;28;20498;-70
2022/01/11 12:00:19;;;;;;;11.47;6.10;;;14.90;99.90;;;;;;5016686;28;20491;-71
2022/01/11 12:02:47;;;;;;;14.10;6.97;;;15.80;99.90;;;;;;5014803;28;20662;-71
2022/01/11 12:05:32;;;;;;;17.20;7.03;;;16.40;99.90;;;;;;5021628;28;20464;-73
2022/01/11 12:07:59;;;;;;;12.20;8.50;;;17.10;98.80;;;;;;5023243;28;20840;-70
2022/01/11 12:10:52;;;;;;;13.10;7.83;;;17.50;96.50;;;;;;5027895;28;20552;-73
2022/01/11 12:13:39;;;;;;;10.70;8.57;;;17.70;95.30;;;;;;5025110;28;20456;-72
2022/01/11 12:16:40;;;;;;;15.00;9.03;;;18.50;92.80;;;;;;5018189;28;20455;-71
2022/01/11 12:19:42;;;;;;;13.67;8.80;;;19.10;91.30;;;;;;5024762;28;20475;-71
2022/01/11 12:22:21;;;;;;;12.57;9.60;;;19.50;87.40;;;;;;5021975;28;20479;-71
2022/01/11 12:24:50;;;;;;;11.40;8.90;;;20.00;82.60;;;;;;5009269;28;20776;-69
2022/01/11 12:27:21;;;;;;;17.40;8.50;;;20.10;81.50;;;;;;5020499;28;21090;-71
2022/01/11 12:29:59;;;;;;;13.73;9.50;;;20.20;78.60;;;;;;5027697;28;21022;-72
2022/01/11 12:32:28;;;;;;;14.17;9.30;;;20.30;77.00;;;;;;5027190;28;20479;-73
2022/01/11 12:34:58;;;;;;;15.93;10.77;;;20.60;75.60;;;;;;5019763;28;21024;-73
2022/01/11 12:37:38;;;;;;;16.73;9.77;;;20.00;75.00;;;;;;5029398;28;20452;-70
2022/01/11 12:40:12;;;;;;;13.23;10.13;;;19.80;75.00;;;;;;5024039;28;20451;-71
2022/01/11 12:42:50;;;;;;;15.00;9.83;;;19.90;76.00;;;;;;5030938;28;20479;-73
2022/01/11 12:45:38;;;;;;;14.57;10.37;;;20.10;73.40;;;;;;5020714;28;20495;-70
2022/01/11 12:48:06;;;;;;;17.60;12.07;;;19.70;74.10;;;;;;5034876;28;20477;-71
2022/01/11 12:50:33;;;;;;;18.90;10.30;;;19.40;74.30;;;;;;5026049;28;20456;-70
2022/01/11 12:53:00;;;;;;;15.13;10.23;;;19.20;75.50;;;;;;5021673;28;20517;-72
2022/01/11 12:55:28;;;;;;;15.40;10.03;;;19.60;75.00;;;;;;5030379;28;20486;-71